• Join FlightAware (Why Join?)
  • Login
  • US Flag 
07:08AM EDT


 

Airport Tracker/Info


-or-


 

Live Flight TrackerFlight Track Log ✈ N66BS ✈ 23-Jun-2013 ✈ KAUS - MMAN / NTR

Flight Track Log - Related Links

Times and Time Zones

All times are in EDT time to prevent confusion due to time zone crossing. See the N66BS flight status page for this flight to view local times or setup timezone preferences in your user account.

Time Position Orientation Groundspeed Altitude Reporting Facility
EDT Latitude Longitude Course Direction KTS MPH feet Rate Location/Type
07:04PM 30.1367 -97.7425 208° Southwest 148 170 6,300  Level Houston Center
07:05PM 30.1242 -97.7886 253° West 149 171 8,200 1,800 Climbing Houston Center
07:06PM 30.1103 -97.8378 252° West 156 180 10,100 1,680 Climbing Houston Center
07:07PM 30.0914 -97.8919 248° West 161 185 11,700 1,320 Climbing Houston Center
07:08PM 29.8706 -97.8705 208° Southwest  Level Estimated
07:08PM 30.0575 -97.9422 232° Southwest 186 214 12,900  Level Houston Center
07:09PM 29.8165 -97.9038 208° Southwest  Level Estimated
07:09PM 30.0217 -97.9828 224° Southwest 181 208 14,200  Level Houston Center
07:10PM 29.9875 -98.0294 230° Southwest 177 204 15,500 1,140 Climbing Houston Center
07:11PM 29.9539 -98.0703 226° Southwest 175 201 16,600 960 Climbing Houston Center
07:12PM 29.9203 -98.1136 228° Southwest 179 206 17,500 900 Climbing Houston Center
07:13PM 29.8825 -98.1608 227° Southwest 186 214 18,500 840 Climbing Houston Center
07:14PM 29.8469 -98.2061 228° Southwest 190 219 19,300 780 Climbing Houston Center
07:15PM 29.8122 -98.2506 228° Southwest 186 214 20,200 840 Climbing Houston Center
07:16PM 29.7742 -98.2986 228° Southwest 188 216 21,100 780 Climbing Houston Center
07:17PM 29.7381 -98.3444 228° Southwest 191 220 21,900 720 Climbing Houston Center
07:18PM 29.7000 -98.3919 227° Southwest 188 216 22,700 720 Climbing Houston Center
07:19PM 29.6647 -98.4364 228° Southwest 189 217 23,400 600 Climbing Houston Center
07:20PM 29.6278 -98.4767 223° Southwest 182 209 24,000 240 Climbing Houston Center
07:21PM 29.5792 -98.5014 204° Southwest 201 231 24,000  Level Houston Center
07:22PM 29.5097 -98.5281 198° South 226 260 24,000  Level Houston Center
07:23PM 29.4472 -98.5636 206° Southwest 232 267 24,000  Level Houston Center
07:24PM 29.3892 -98.5933 204° Southwest 230 265 24,000  Level Houston Center
07:25PM 29.3247 -98.6247 203° Southwest 233 268 24,000  Level Houston Center
07:26PM 29.2667 -98.6558 205° Southwest 232 267 24,000  Level Houston Center
07:27PM 29.2025 -98.6881 204° Southwest 233 268 24,000  Level Houston Center
07:28PM 29.1422 -98.7181 203° Southwest 236 272 24,000  Level Houston Center
07:29PM 29.0819 -98.7492 204° Southwest 235 270 24,000  Level Houston Center
07:31PM 29.0178 -98.7817 204° Southwest 235 270 24,000  Level Houston Center
07:32PM 28.9575 -98.8117 204° Southwest 236 272 24,000  Level Houston Center
07:33PM 28.8931 -98.8447 204° Southwest 235 270 24,000  Level Houston Center
07:34PM 28.8322 -98.8753 204° Southwest 238 274 24,000  Level Houston Center
07:35PM 28.7708 -98.9053 203° Southwest 239 275 24,000  Level Houston Center
07:36PM 28.7056 -98.9375 203° Southwest 236 272 24,000  Level Houston Center
07:37PM 28.6489 -98.9664 204° Southwest 239 275 24,000  Level Houston Center
07:38PM 28.5883 -98.9972 204° Southwest 239 275 24,000  Level Houston Center
07:39PM 28.5272 -99.0275 204° Southwest 238 274 24,000  Level Houston Center
07:40PM 28.4667 -99.0572 203° Southwest 237 273 24,000  Level Houston Center
07:41PM 28.3942 -99.0931 204° Southwest 236 272 24,000  Level Houston Center
07:42PM 28.3322 -99.1244 204° Southwest 242 278 24,000  Level Houston Center
07:43PM 28.2717 -99.1547 204° Southwest 239 275 24,000  Level Houston Center
07:44PM 28.2114 -99.1847 204° Southwest 237 273 24,000  Level Houston Center
07:45PM 28.1506 -99.2161 204° Southwest 239 275 24,000  Level Houston Center
07:46PM 28.0894 -99.2453 203° Southwest 238 274 24,000  Level Houston Center
07:47PM 28.0161 -99.2825 204° Southwest 239 275 24,000  Level Houston Center
07:48PM 27.9553 -99.3128 204° Southwest 240 276 24,000  Level Houston Center
07:49PM 27.8950 -99.3414 203° Southwest 236 272 24,000  Level Houston Center
07:50PM 27.8342 -99.3719 204° Southwest 238 274 24,000  Level Houston Center
07:51PM 27.7733 -99.4025 204° Southwest 239 275 24,000  Level Houston Center
07:52PM 27.7006 -99.4381 203° Southwest 238 274 24,000  Level Houston Center
07:53PM 27.6397 -99.4689 204° Southwest 239 275 24,000  Level Houston Center
07:54PM 27.5792 -99.4983 203° Southwest 237 273 24,000  Level Houston Center
07:56PM 27.5083 -99.5271 214° Southwest  Level FlightAware Approximate
08:03PM 27.1076 -99.6965 202° Southwest  Level FlightAware Approximate
08:04PM 27.0506 -99.7215 201° Southwest  Level FlightAware Approximate
08:05PM 26.9935 -99.7463 201° Southwest  Level FlightAware Approximate
08:06PM 26.9364 -99.7711 201° Southwest  Level FlightAware Approximate
08:07PM 26.8793 -99.7959 201° Southwest  Level FlightAware Approximate
08:08PM 26.8222 -99.8206 201° Southwest  Level FlightAware Approximate
08:09PM 26.7651 -99.8454 201° Southwest  Level FlightAware Approximate
08:10PM 26.7079 -99.8701 201° Southwest  Level FlightAware Approximate
08:11PM 26.6508 -99.8947 201° Southwest  Level FlightAware Approximate
08:12PM 26.5937 -99.9195 202° Southwest  Level FlightAware Approximate
08:13PM 26.5368 -99.9448 202° Southwest  Level FlightAware Approximate
08:14PM 26.4799 -99.9701 202° Southwest  Level FlightAware Approximate
08:15PM 26.4228 -99.9947 200° South  Level FlightAware Approximate
08:16PM 26.3654 -100.0186 200° South  Level FlightAware Approximate
08:17PM 26.3081 -100.0425 200° South  Level FlightAware Approximate
08:18PM 26.2507 -100.0664 200° South  Level FlightAware Approximate
08:19PM 26.1931 -100.0895 200° South  Level FlightAware Approximate
08:20PM 26.1354 -100.1125 200° South  Level FlightAware Approximate
08:21PM 26.0790 -100.1377 222° Southwest  Level FlightAware Approximate
08:22PM 26.0238 -100.1643 197° South  Level FlightAware Approximate
08:23PM 25.9661 -100.1869 200° South  Level FlightAware Approximate
08:24PM 25.9114 -100.2164 214° Southwest  Level FlightAware Approximate
08:25PM 25.8667 -100.2500 214° Southwest  Level FlightAware Approximate
08:26PM 25.8656 -100.2372 214° Southwest  Level Estimated
08:27PM 25.8656 -100.2372 214° Southwest  Level Estimated
08:28PM 25.8656 -100.2372 214° Southwest  Level Estimated
08:29PM 25.8656 -100.2372 214° Southwest  Level Estimated
08:30PM 25.8656 -100.2372 214° Southwest  Level Estimated
08:31PM 25.8656 -100.2372 214° Southwest  Level Estimated
08:32PM 25.8656 -100.2372 214° Southwest  Level Estimated
08:33PM 25.8656 -100.2372 214° Southwest  Level Estimated
08:34PM 25.8656 -100.2372 214° Southwest  Level Estimated
08:35PM 25.8656 -100.2372 214° Southwest  Level Estimated
08:36PM 25.8656 -100.2372 214° Southwest  Level Estimated
08:37PM 25.8656 -100.2372 214° Southwest  Level Estimated
08:38PM 25.8656 -100.2372 214° Southwest  Level Estimated
08:39PM 25.8656 -100.2372 214° Southwest  Level Estimated
08:40PM 25.8656 -100.2372 214° Southwest  Level Estimated
08:41PM 25.8656 -100.2372 214° Southwest  Level Estimated
08:42PM 25.8656 -100.2372 214° Southwest  Level Estimated
08:43PM 25.8656 -100.2372 214° Southwest  Level Estimated
08:44PM 25.8656 -100.2372 214° Southwest  Level Estimated
08:45PM 25.8656 -100.2372 214° Southwest  Level Estimated
08:46PM 25.8656 -100.2372 214° Southwest  Level Estimated
08:47PM 25.8656 -100.2372 214° Southwest  Level Estimated
08:48PM 25.8656 -100.2372 214° Southwest  Level Estimated
08:49PM 25.8656 -100.2372 214° Southwest  Level Estimated
08:50PM 25.8656 -100.2372 214° Southwest  Level Estimated
08:51PM 25.8656 -100.2372 214° Southwest  Level Estimated
08:52PM 25.8656 -100.2372 214° Southwest  Level Estimated
08:53PM 25.8656 -100.2372 214° Southwest  Level Estimated
08:54PM 25.8656 -100.2372 214° Southwest  Level Estimated
08:55PM 25.8656 -100.2372 214° Southwest  Level Estimated
08:56PM 25.8656 -100.2372 214° Southwest  Level Estimated
08:57PM 25.8656 -100.2372 214° Southwest  Level Estimated
08:58PM 25.8656 -100.2372 214° Southwest  Level Estimated
08:59PM 25.8656 -100.2372 214° Southwest  Level Estimated
09:00PM 25.8656 -100.2372 214° Southwest  Level Estimated
09:01PM 25.8656 -100.2372 214° Southwest  Level Estimated
09:02PM 25.8656 -100.2372 214° Southwest  Level Estimated
09:03PM 25.8656 -100.2372 214° Southwest  Level Estimated
09:04PM 25.8656 -100.2372 214° Southwest  Level Estimated
09:05PM 25.8656 -100.2372 214° Southwest  Level Estimated
09:06PM 25.8656 -100.2372 214° Southwest  Level Estimated
09:07PM 25.8656 -100.2372 214° Southwest  Level Estimated
09:08PM 25.8656 -100.2372 214° Southwest  Level Estimated
09:09PM 25.8656 -100.2372 214° Southwest  Level Estimated
09:10PM 25.8656 -100.2372 214° Southwest  Level Estimated
09:11PM 25.8656 -100.2372 214° Southwest  Level Estimated
09:12PM 25.8656 -100.2372 214° Southwest  Level Estimated